Time;durP1;ratioP1;P1;durP2;ratioP2;P2;SDS_P1;SDS_P2;PMS_P1;PMS_P2;Temp;Humidity;BMP_temperature;BMP_pressure;BME280_temperature;BME280_humidity;BME280_pressure;Samples;Min_cycle;Max_cycle;Signal;HPM_P1;HPM_P2
2022/12/03 00:00:54;;;;;;;39.42;23.92;;;;;;;4.12;100.00;101236.28;5093716;28;20039;-69
2022/12/03 00:03:20;;;;;;;43.33;24.42;;;;;;;3.95;100.00;101217.66;5091028;28;20016;-70
2022/12/03 00:05:45;;;;;;;38.17;24.20;;;;;;;4.02;100.00;101235.00;5090233;28;20084;-70
2022/12/03 00:08:10;;;;;;;44.05;25.55;;;;;;;4.18;100.00;101267.88;5090084;28;20048;-69
2022/12/03 00:10:36;;;;;;;43.95;24.92;;;;;;;4.12;100.00;101257.53;5092510;28;20027;-69
2022/12/03 00:13:01;;;;;;;48.08;25.02;;;;;;;3.97;100.00;101239.66;5091397;28;20047;-70
2022/12/03 00:15:27;;;;;;;39.05;23.70;;;;;;;4.01;100.00;101238.59;5090933;28;20034;-70
2022/12/03 00:17:52;;;;;;;49.17;25.23;;;;;;;4.10;100.00;101256.72;5091247;28;20027;-70
2022/12/03 00:20:21;;;;;;;44.25;25.50;;;;;;;4.09;100.00;101256.81;5090949;28;20016;-70
2022/12/03 00:22:47;;;;;;;44.22;24.85;;;;;;;4.08;100.00;101261.28;5091112;28;20032;-68
2022/12/03 00:25:13;;;;;;;46.00;25.30;;;;;;;4.08;100.00;101260.41;5091469;28;20027;-69
2022/12/03 00:27:38;;;;;;;41.00;23.85;;;;;;;4.05;100.00;101261.41;5089390;28;20464;-70
2022/12/03 00:30:05;;;;;;;41.92;23.50;;;;;;;4.04;100.00;101259.69;5089737;28;20023;-69
2022/12/03 00:32:30;;;;;;;45.08;22.80;;;;;;;3.99;100.00;101252.84;5090744;28;20081;-69
2022/12/03 00:34:55;;;;;;;38.90;22.88;;;;;;;3.97;100.00;101258.22;5089729;28;20036;-69
2022/12/03 00:37:21;;;;;;;43.50;25.60;;;;;;;3.96;100.00;101266.25;5090850;28;20139;-70
2022/12/03 00:39:46;;;;;;;42.00;24.73;;;;;;;3.79;100.00;101236.97;5091647;28;20056;-74
2022/12/03 00:42:12;;;;;;;42.38;23.75;;;;;;;3.99;100.00;101269.66;5092581;28;20104;-74
2022/12/03 00:44:37;;;;;;;46.05;25.83;;;;;;;3.99;100.00;101276.72;5091247;28;20162;-70
2022/12/03 00:47:03;;;;;;;39.70;23.13;;;;;;;3.90;100.00;101256.78;5089171;28;20122;-70
2022/12/03 00:49:28;;;;;;;42.78;23.77;;;;;;;4.01;100.00;101280.19;5090306;28;20036;-70
2022/12/03 00:51:54;;;;;;;43.85;24.58;;;;;;;3.79;100.00;101255.56;5090467;28;20035;-70
2022/12/03 00:54:19;;;;;;;44.33;23.88;;;;;;;3.83;100.00;101270.41;5091880;28;20757;-71
2022/12/03 00:56:44;;;;;;;43.58;25.13;;;;;;;3.94;100.00;101302.63;5088893;28;20027;-70
2022/12/03 00:59:10;;;;;;;41.22;24.38;;;;;;;3.83;100.00;101287.19;5088540;28;20024;-69
2022/12/03 01:01:36;;;;;;;42.08;24.80;;;;;;;3.91;100.00;101300.13;5090043;28;20031;-69
2022/12/03 01:04:01;;;;;;;42.95;23.67;;;;;;;3.82;100.00;101285.47;5090514;28;20059;-70
2022/12/03 01:06:27;;;;;;;44.45;24.58;;;;;;;3.86;100.00;101291.50;5088541;28;20032;-69
2022/12/03 01:08:52;;;;;;;44.50;24.75;;;;;;;3.77;100.00;101274.19;5088618;28;20357;-73
2022/12/03 01:14:02;;;;;;;42.67;23.95;;;;;;;3.87;100.00;101302.03;5090513;28;20031;-74
2022/12/03 01:16:28;;;;;;;46.90;24.98;;;;;;;3.86;100.00;101300.31;5090334;28;20031;-74
2022/12/03 01:18:53;;;;;;;44.80;24.73;;;;;;;3.89;100.00;101299.31;5091652;28;20024;-75
2022/12/03 01:21:19;;;;;;;43.60;24.58;;;;;;;3.88;100.00;101294.94;5091986;28;20103;-74
2022/12/03 01:23:44;;;;;;;42.70;24.67;;;;;;;3.89;100.00;101294.88;5092088;28;20024;-74
2022/12/03 01:26:10;;;;;;;44.63;25.65;;;;;;;3.83;100.00;101273.06;5092073;28;20400;-74
2022/12/03 01:28:35;;;;;;;53.47;26.80;;;;;;;3.90;100.00;101299.25;5091716;28;20043;-74
2022/12/03 01:33:45;;;;;;;;;;;;;;;3.92;100.00;101299.19;5089853;28;20031;-74
2022/12/03 01:36:10;;;;;;;44.55;24.10;;;;;;;3.88;100.00;101300.25;5090699;28;19912;-74
2022/12/03 01:38:35;;;;;;;43.28;25.75;;;;;;;3.88;100.00;101300.25;5090350;28;20071;-73
2022/12/03 01:41:01;;;;;;;49.47;24.70;;;;;;;3.81;100.00;101286.38;5091635;28;20024;-73
2022/12/03 01:43:26;;;;;;;47.20;24.98;;;;;;;3.89;100.00;101307.28;5091741;28;20107;-74
2022/12/03 01:45:52;;;;;;;46.83;25.48;;;;;;;3.89;100.00;101307.28;5091721;28;20020;-74
2022/12/03 01:48:17;;;;;;;52.50;25.10;;;;;;;3.90;100.00;101301.06;5091806;28;20032;-74
2022/12/03 01:50:44;;;;;;;41.47;24.73;;;;;;;3.91;100.00;101300.13;5092955;28;20452;-74
2022/12/03 01:53:14;;;;;;;48.17;25.15;;;;;;;3.91;100.00;101294.81;5091472;28;20031;-74
2022/12/03 01:55:40;;;;;;;50.28;28.02;;;;;;;3.82;100.00;101279.31;5089931;28;20024;-75
2022/12/03 01:58:10;;;;;;;51.67;27.60;;;;;;;3.90;100.00;101293.94;5091387;28;20092;-75
2022/12/03 02:00:35;;;;;;;58.40;28.75;;;;;;;3.87;100.00;101277.31;5091485;28;20036;-73
2022/12/03 02:03:10;;;;;;;60.17;29.20;;;;;;;3.91;100.00;101286.84;5091234;28;20380;-74
2022/12/03 02:05:36;;;;;;;54.88;28.05;;;;;;;3.82;100.00;101269.56;5091026;28;20043;-74
2022/12/03 02:08:47;;;;;;;57.10;30.13;;;;;;;3.94;100.00;101289.38;5091165;28;20048;-74
2022/12/03 02:11:24;;;;;;;65.72;29.73;;;;;;;3.91;100.00;101285.06;5091865;28;20051;-74
2022/12/03 02:13:54;;;;;;;60.25;29.63;;;;;;;3.77;100.00;101260.09;5088313;28;20047;-74
2022/12/03 02:16:20;;;;;;;63.40;32.28;;;;;;;3.92;100.00;101291.22;5091213;28;20031;-74
2022/12/03 02:18:46;;;;;;;62.00;29.48;;;;;;;3.91;100.00;101284.19;5090744;28;20032;-74
2022/12/03 02:21:51;;;;;;;65.22;31.73;;;;;;;3.93;100.00;101298.25;5092725;28;20031;-74
2022/12/03 02:24:16;;;;;;;;;;;;;;;3.95;100.00;101297.25;5089332;28;20393;-74
2022/12/03 02:26:41;;;;;;;67.53;30.38;;;;;;;3.91;100.00;101289.50;5090890;28;19919;-74
2022/12/03 02:29:07;;;;;;;60.75;30.10;;;;;;;3.76;100.00;101261.88;5089642;28;20031;-74
2022/12/03 02:31:32;;;;;;;66.88;31.48;;;;;;;3.84;100.00;101282.75;5090914;28;20039;-75
2022/12/03 02:33:58;;;;;;;68.22;30.52;;;;;;;3.81;100.00;101277.59;5089356;28;20032;-75
2022/12/03 02:36:24;;;;;;;70.55;33.03;;;;;;;3.89;100.00;101294.00;5090921;28;20130;-75
2022/12/03 02:38:50;;;;;;;67.65;33.13;;;;;;;3.91;100.00;101300.13;5090729;28;20055;-75
2022/12/03 02:44:06;;;;;;;64.97;31.92;;;;;;;3.87;100.00;101298.53;5091926;28;20066;-74
2022/12/03 02:46:32;;;;;;;73.95;33.78;;;;;;;3.81;100.00;101289.03;5090401;28;20024;-75
2022/12/03 02:48:59;;;;;;;72.95;33.53;;;;;;;3.87;100.00;101290.59;5090906;28;20036;-73
2022/12/03 02:51:25;;;;;;;73.00;34.78;;;;;;;3.88;100.00;101290.50;5090512;28;20036;-74
2022/12/03 02:53:52;;;;;;;71.90;32.97;;;;;;;3.87;100.00;101279.97;5092429;28;20024;-74
2022/12/03 02:56:22;;;;;;;75.60;34.28;;;;;;;3.85;100.00;101293.31;5093206;28;20093;-73
2022/12/03 02:58:50;;;;;;;74.47;33.15;;;;;;;3.88;100.00;101290.50;5089272;28;20450;-74
2022/12/03 03:01:16;;;;;;;73.32;34.47;;;;;;;3.80;100.00;101284.66;5089882;28;20031;-69
2022/12/03 03:03:44;;;;;;;68.13;33.25;;;;;;;3.78;100.00;101288.34;5087349;28;20020;-70
2022/12/03 03:06:10;;;;;;;70.22;33.35;;;;;;;3.76;100.00;101277.78;5088398;28;20036;-69
2022/12/03 03:08:37;;;;;;;74.90;36.28;;;;;;;3.87;100.00;101293.22;5086659;28;20028;-70
2022/12/03 03:11:03;;;;;;;69.18;35.58;;;;;;;3.86;100.00;101296.78;5087965;28;20050;-69
2022/12/03 03:13:29;;;;;;;72.63;35.67;;;;;;;3.85;100.00;101295.09;5088028;28;20040;-69
2022/12/03 03:15:56;;;;;;;73.00;35.25;;;;;;;3.56;100.00;101246.00;5089963;28;20028;-69
2022/12/03 03:18:21;;;;;;;67.57;33.25;;;;;;;3.84;100.00;101283.59;5087930;28;20035;-70
2022/12/03 03:20:47;;;;;;;69.05;35.55;;;;;;;3.79;100.00;101279.44;5086545;28;20032;-68
2022/12/03 03:23:18;;;;;;;74.35;35.90;;;;;;;3.86;100.00;101296.78;5087855;28;20016;-69
2022/12/03 03:25:54;;;;;;;73.50;33.95;;;;;;;3.78;100.00;101280.38;5088648;28;20105;-69
2022/12/03 03:28:20;;;;;;;76.07;36.13;;;;;;;3.81;100.00;101289.03;5086635;28;20024;-69
2022/12/03 03:30:46;;;;;;;72.00;35.92;;;;;;;3.81;100.00;101298.81;5086553;28;20028;-70
2022/12/03 03:33:12;;;;;;;67.43;34.35;;;;;;;3.71;100.00;101281.59;5089323;28;20068;-69
2022/12/03 03:35:38;;;;;;;69.95;36.00;;;;;;;3.75;100.00;101293.78;5092208;28;20252;-70
2022/12/03 03:38:05;;;;;;;65.03;34.38;;;;;;;3.77;100.00;101290.13;5091878;28;20049;-70
2022/12/03 03:40:31;;;;;;;68.72;36.30;;;;;;;3.60;100.00;101263.47;5091719;28;20040;-70
2022/12/03 03:42:57;;;;;;;68.63;35.50;;;;;;;3.77;100.00;101299.88;5090180;28;20036;-69
2022/12/03 03:45:22;;;;;;;71.13;35.25;;;;;;;3.73;100.00;101290.31;5091181;28;20147;-70
2022/12/03 03:47:48;;;;;;;69.88;33.75;;;;;;;3.77;100.00;101302.53;5091171;28;20062;-69
2022/12/03 03:50:14;;;;;;;66.68;33.70;;;;;;;3.76;100.00;101298.13;5091633;28;20035;-70
2022/12/03 03:52:41;;;;;;;64.50;33.80;;;;;;;3.62;100.00;101274.91;5091003;28;20051;-70
2022/12/03 03:55:08;;;;;;;72.30;34.95;;;;;;;3.57;100.00;101266.28;5091483;28;20036;-70
2022/12/03 03:57:34;;;;;;;70.55;34.75;;;;;;;3.74;100.00;101294.72;5091134;28;20024;-70
2022/12/03 03:59:59;;;;;;;69.00;35.20;;;;;;;3.64;100.00;101274.84;5090927;28;20088;-70
2022/12/03 04:02:26;;;;;;;74.65;36.67;;;;;;;3.77;100.00;101302.53;5090964;28;20035;-69
2022/12/03 04:04:52;;;;;;;71.03;35.00;;;;;;;3.60;100.00;101260.84;5093100;28;20074;-70
2022/12/03 04:07:17;;;;;;;66.60;35.20;;;;;;;3.69;100.00;101278.13;5091017;28;20032;-70
2022/12/03 04:09:43;;;;;;;66.35;35.53;;;;;;;3.56;100.00;101253.94;5090893;28;20036;-69
2022/12/03 04:14:54;;;;;;;74.43;35.53;;;;;;;3.67;100.00;101277.31;5090983;28;20393;-69
2022/12/03 04:17:20;;;;;;;71.75;36.65;;;;;;;3.59;100.00;101275.03;5090302;28;20036;-69
2022/12/03 04:19:45;;;;;;;71.60;36.63;;;;;;;3.69;100.00;101286.09;5089527;28;20027;-69
2022/12/03 04:28:47;;;;;;;78.68;36.10;;;;;;;3.67;100.00;101286.16;5090704;28;20039;-69
2022/12/03 04:30:40;;;;;;;68.35;33.70;;;;;;;3.66;100.00;101294.19;5025891;28;20115;-69
2022/12/03 04:35:50;;;;;;;68.20;36.05;;;;;;;3.63;100.00;101281.91;5092122;28;20086;-70
2022/12/03 04:38:16;;;;;;;70.38;36.72;;;;;;;3.54;100.00;101263.75;5089962;28;20114;-69
2022/12/03 04:40:59;;;;;;;74.25;35.08;;;;;;;3.62;100.00;101288.16;5090420;28;20114;-69
2022/12/03 04:43:30;;;;;;;69.40;36.35;;;;;;;3.63;100.00;101284.56;5089408;28;20406;-70
2022/12/03 04:45:55;;;;;;;69.82;36.45;;;;;;;3.59;100.00;101276.81;5090849;28;20062;-70
2022/12/03 04:48:21;;;;;;;77.10;37.28;;;;;;;3.48;100.00;101265.81;5090431;28;20071;-70
2022/12/03 04:50:46;;;;;;;71.93;34.70;;;;;;;3.56;100.00;101272.50;5090506;28;20089;-70
2022/12/03 04:53:12;;;;;;;74.75;36.90;;;;;;;3.57;100.00;101274.22;5091466;28;20019;-70
2022/12/03 04:55:38;;;;;;;74.82;36.70;;;;;;;3.47;100.00;101253.47;5090537;28;20038;-70
2022/12/03 04:58:03;;;;;;;65.00;34.88;;;;;;;3.63;100.00;101283.69;5090303;28;20020;-69
2022/12/03 05:00:28;;;;;;;81.75;37.33;;;;;;;3.42;100.00;101252.84;5091302;28;20085;-69
2022/12/03 05:02:54;;;;;;;72.35;35.90;;;;;;;3.54;100.00;101279.66;5090190;28;20032;-70
2022/12/03 05:05:19;;;;;;;74.60;39.00;;;;;;;3.58;100.00;101285.72;5090396;28;20039;-69
2022/12/03 05:07:45;;;;;;;69.68;36.20;;;;;;;3.55;100.00;101288.50;5086490;28;20032;-68
2022/12/03 05:10:11;;;;;;;72.03;37.25;;;;;;;3.54;100.00;101289.41;5088688;28;20035;-70
2022/12/03 05:12:36;;;;;;;81.75;40.67;;;;;;;3.58;100.00;101301.63;5088831;28;20059;-70
2022/12/03 05:15:03;;;;;;;71.93;37.20;;;;;;;3.61;100.00;101304.97;5090192;28;20046;-70
2022/12/03 05:17:28;;;;;;;83.03;40.22;;;;;;;3.44;100.00;101269.50;5090119;28;20032;-69
2022/12/03 05:22:37;;;;;;;79.35;41.65;;;;;;;3.57;100.00;101281.31;5090152;28;20035;-69
2022/12/03 05:25:03;;;;;;;85.90;42.38;;;;;;;3.44;100.00;101267.75;5090369;28;20373;-70
2022/12/03 05:27:29;;;;;;;83.00;41.42;;;;;;;3.46;100.00;101278.28;5089833;28;20589;-69
2022/12/03 05:29:54;;;;;;;92.03;38.75;;;;;;;3.62;100.00;101303.19;5091096;28;20149;-70
2022/12/03 05:32:20;;;;;;;77.93;39.92;;;;;;;3.55;100.00;101291.97;5089529;28;20020;-68
2022/12/03 05:34:45;;;;;;;81.22;41.17;;;;;;;3.59;100.00;101298.03;5089563;28;20073;-69
2022/12/03 05:37:10;;;;;;;84.93;41.63;;;;;;;3.55;100.00;101297.28;5086965;28;20112;-70
2022/12/03 05:39:36;;;;;;;81.10;40.58;;;;;;;3.65;100.00;101314.53;5089280;28;20039;-69
2022/12/03 05:44:46;;;;;;;78.45;40.40;;;;;;;3.41;100.00;101265.22;5089763;28;20039;-73
2022/12/03 05:47:12;;;;;;;93.55;42.08;;;;;;;3.53;100.00;101290.34;5090580;28;20472;-74
2022/12/03 05:49:37;;;;;;;87.32;40.97;;;;;;;3.65;100.00;101305.72;5093516;28;20032;-74
2022/12/03 05:52:03;;;;;;;84.00;40.90;;;;;;;3.65;100.00;101309.22;5091268;28;20084;-73
2022/12/03 05:54:28;;;;;;;82.47;41.03;;;;;;;3.66;100.00;101318.03;5090252;28;20039;-74
2022/12/03 05:56:54;;;;;;;83.60;40.25;;;;;;;3.57;100.00;101298.09;5091355;28;20020;-74
2022/12/03 05:59:19;;;;;;;98.93;41.20;;;;;;;3.65;100.00;101308.38;5092399;28;20031;-74
2022/12/03 06:01:44;;;;;;;94.72;39.60;;;;;;;3.67;100.00;101314.44;5091425;28;20417;-74
2022/12/03 06:04:10;;;;;;;80.35;40.95;;;;;;;3.62;100.00;101311.16;5091152;28;20393;-76
2022/12/03 06:06:35;;;;;;;83.22;41.88;;;;;;;3.54;100.00;101294.69;5091275;28;20031;-75
2022/12/03 06:09:01;;;;;;;87.22;40.88;;;;;;;3.52;100.00;101296.56;5091174;28;20031;-75
2022/12/03 06:11:28;;;;;;;91.03;43.72;;;;;;;3.63;100.00;101312.88;5089529;28;20102;-75
2022/12/03 06:13:54;;;;;;;103.07;49.60;;;;;;;3.56;100.00;101303.47;5091335;28;20028;-73
2022/12/03 06:16:19;;;;;;;102.68;51.42;;;;;;;3.64;100.00;101341.16;5089384;28;20488;-74
2022/12/03 06:18:44;;;;;;;89.22;44.60;;;;;;;3.45;100.00;101295.97;5090912;28;20106;-75
2022/12/03 06:21:10;;;;;;;93.90;46.45;;;;;;;3.66;100.00;101332.19;5091267;28;20032;-75
2022/12/03 06:23:36;;;;;;;87.78;41.97;;;;;;;3.66;100.00;101321.56;5088275;28;20020;-76
2022/12/03 06:26:01;;;;;;;98.78;42.85;;;;;;;3.49;100.00;101284.31;5090323;28;20085;-75
2022/12/03 06:28:27;;;;;;;108.03;40.88;;;;;;;3.63;100.00;101312.88;5093066;28;20028;-75
2022/12/03 06:30:52;;;;;;;89.68;41.90;;;;;;;3.65;100.00;101313.69;5086398;28;20046;-69
2022/12/03 06:33:17;;;;;;;92.38;42.65;;;;;;;3.57;100.00;101310.47;5083327;28;20466;-69
2022/12/03 06:35:43;;;;;;;83.32;41.28;;;;;;;3.67;100.00;101320.63;5088590;28;20055;-74
2022/12/03 06:38:08;;;;;;;93.50;41.03;;;;;;;3.64;100.00;101306.66;5088706;28;20503;-73
2022/12/03 06:40:34;;;;;;;88.82;41.75;;;;;;;3.59;100.00;101306.00;5089436;28;20036;-75
2022/12/03 06:42:59;;;;;;;87.32;40.40;;;;;;;3.53;100.00;101288.56;5089507;28;20043;-74
2022/12/03 06:45:40;;;;;;;95.28;40.97;;;;;;;3.62;100.00;101317.34;5060183;28;20083;-74
2022/12/03 06:48:05;;;;;;;89.82;42.25;;;;;;;3.72;100.00;101331.03;5088767;28;20036;-74
2022/12/03 06:50:31;;;;;;;99.68;42.53;;;;;;;3.59;100.00;101304.19;5088552;28;20024;-75
2022/12/03 06:52:56;;;;;;;96.00;41.78;;;;;;;3.68;100.00;101311.72;5089134;28;20028;-75
2022/12/03 06:55:21;;;;;;;110.38;45.38;;;;;;;3.60;100.00;101294.44;5089182;28;20054;-74
2022/12/03 06:57:47;;;;;;;95.75;42.45;;;;;;;3.65;100.00;101313.69;5089246;28;20039;-74
2022/12/03 07:00:13;;;;;;;87.53;39.90;;;;;;;3.74;100.00;101334.50;5089206;28;20039;-74
2022/12/03 07:02:38;;;;;;;104.15;43.97;;;;;;;3.62;100.00;101308.50;5089333;28;20412;-75
2022/12/03 07:05:04;;;;;;;100.88;45.80;;;;;;;3.60;100.00;101294.44;5089491;28;20305;-75
2022/12/03 07:07:29;;;;;;;120.15;42.75;;;;;;;3.73;100.00;101327.44;5088840;28;20030;-75
2022/12/03 07:09:55;;;;;;;106.15;44.65;;;;;;;3.71;100.00;101329.34;5087760;28;20044;-75
2022/12/03 07:12:23;;;;;;;107.60;44.90;;;;;;;3.75;100.00;101329.13;5089361;28;20044;-75
2022/12/03 07:14:49;;;;;;;102.03;43.63;;;;;;;3.51;100.00;101284.25;5089300;28;20044;-75
2022/12/03 07:17:14;;;;;;;112.18;46.47;;;;;;;3.74;100.00;101315.94;5089154;28;20050;-74
2022/12/03 07:19:40;;;;;;;103.95;47.15;;;;;;;3.74;100.00;101319.44;5089266;28;20040;-75
2022/12/03 07:22:05;;;;;;;109.97;46.22;;;;;;;3.67;100.00;101312.69;5085327;28;20024;-75
2022/12/03 07:24:31;;;;;;;112.15;47.75;;;;;;;3.67;100.00;101306.50;5089110;28;20073;-74
2022/12/03 07:26:56;;;;;;;109.68;46.10;;;;;;;3.83;100.00;101334.94;5089419;28;20035;-73
2022/12/03 07:29:21;;;;;;;106.13;45.70;;;;;;;3.82;100.00;101322.63;5088774;28;20074;-73
2022/12/03 07:31:47;;;;;;;114.95;47.17;;;;;;;3.74;100.00;101313.28;5088940;28;20476;-75
2022/12/03 07:34:12;;;;;;;110.28;46.85;;;;;;;3.90;100.00;101338.22;5089041;28;20024;-74
2022/12/03 07:36:38;;;;;;;108.85;44.05;;;;;;;3.88;100.00;101337.41;5089191;28;20076;-74
2022/12/03 07:39:04;;;;;;;108.60;46.50;;;;;;;3.88;100.00;101340.94;5089728;28;20464;-73
2022/12/03 07:41:29;;;;;;;117.93;48.03;;;;;;;3.92;100.00;101337.22;5087104;28;20078;-74
2022/12/03 07:43:54;;;;;;;113.55;47.55;;;;;;;3.93;100.00;101330.97;5086549;28;20482;-73
2022/12/03 07:46:20;;;;;;;120.47;49.58;;;;;;;3.94;100.00;101348.59;5087371;28;20484;-74
2022/12/03 07:48:45;;;;;;;111.50;46.90;;;;;;;3.80;100.00;101323.59;5088806;28;20427;-73
2022/12/03 07:51:11;;;;;;;118.72;46.35;;;;;;;3.96;100.00;101338.78;5088690;28;20032;-74
2022/12/03 07:53:36;;;;;;;127.57;50.50;;;;;;;3.87;100.00;101333.88;5087703;28;20028;-74
2022/12/03 07:56:03;;;;;;;125.10;52.80;;;;;;;3.88;100.00;101332.09;5088717;28;20047;-74
2022/12/03 07:58:29;;;;;;;134.65;59.95;;;;;;;3.89;100.00;101329.38;5087804;28;20072;-69
2022/12/03 08:00:55;;;;;;;151.05;63.92;;;;;;;4.01;100.00;101350.06;5086285;28;20048;-71
2022/12/03 08:03:20;;;;;;;157.10;69.85;;;;;;;3.91;100.00;101324.00;5086653;28;20031;-73
2022/12/03 08:05:46;;;;;;;137.73;54.25;;;;;;;3.99;100.00;101340.44;5086860;28;20546;-73
2022/12/03 08:08:11;;;;;;;109.45;50.10;;;;;;;3.95;100.00;101331.75;5087787;28;20427;-73
2022/12/03 08:10:37;;;;;;;118.13;51.33;;;;;;;4.04;100.00;101338.44;5088614;28;20515;-74
2022/12/03 08:13:09;;;;;;;125.55;57.75;;;;;;;4.03;100.00;101340.22;5088669;28;20357;-74
2022/12/03 08:15:35;;;;;;;128.85;49.97;;;;;;;3.99;100.00;101335.13;5088598;28;20028;-74
2022/12/03 08:18:07;;;;;;;131.70;61.85;;;;;;;3.91;100.00;101318.69;5104273;28;20027;-74
2022/12/03 08:20:36;;;;;;;122.68;54.80;;;;;;;4.06;100.00;101344.53;5092059;28;20035;-74
2022/12/03 08:23:09;;;;;;;137.10;49.55;;;;;;;3.94;100.00;101321.22;5092357;28;20107;-73
2022/12/03 08:25:34;;;;;;;111.85;52.10;;;;;;;3.97;100.00;101321.91;5090634;28;20472;-74
2022/12/03 08:28:24;;;;;;;111.80;50.78;;;;;;;4.10;100.00;101340.84;5090376;28;20040;-73
2022/12/03 08:30:58;;;;;;;109.45;54.53;;;;;;;4.09;100.00;101342.63;5089592;28;20023;-70
2022/12/03 08:33:34;;;;;;;;;;;;;;;4.15;100.00;101338.81;5091249;28;20047;-69
2022/12/03 08:36:05;;;;;;;101.13;49.65;;;;;;;4.17;100.00;101331.66;5088607;28;19915;-69
2022/12/03 08:38:30;;;;;;;99.38;46.15;;;;;;;4.04;100.00;101315.44;5088464;28;20048;-69
2022/12/03 08:40:56;;;;;;;94.85;46.47;;;;;;;4.24;100.00;101343.72;5089519;28;20038;-69
2022/12/03 08:43:27;;;;;;;92.95;47.42;;;;;;;4.32;100.00;101347.72;5104526;28;20054;-69
2022/12/03 08:45:54;;;;;;;104.45;49.00;;;;;;;4.28;100.00;101359.44;5088773;28;20061;-69
2022/12/03 08:48:25;;;;;;;103.57;49.50;;;;;;;4.33;100.00;101362.72;5087161;28;20032;-70
2022/12/03 08:50:54;;;;;;;102.72;50.72;;;;;;;4.27;100.00;101356.84;5089142;28;20157;-70
2022/12/03 08:53:36;;;;;;;98.80;51.58;;;;;;;4.29;100.00;101365.63;5088825;28;20063;-71
2022/12/03 08:56:26;;;;;;;116.00;51.30;;;;;;;4.31;100.00;101350.47;5087780;28;20031;-74
2022/12/03 08:58:56;;;;;;;109.70;54.08;;;;;;;4.36;100.00;101361.75;5090967;28;20881;-74
2022/12/03 09:01:42;;;;;;;112.25;54.08;;;;;;;4.30;100.00;101349.63;5091080;28;20384;-74
2022/12/03 09:04:22;;;;;;;102.13;50.58;;;;;;;4.45;100.00;101367.47;5091460;28;20036;-73
2022/12/03 09:06:48;;;;;;;95.95;47.53;;;;;;;4.45;100.00;101364.00;5090239;28;20040;-75
2022/12/03 09:09:14;;;;;;;95.15;47.60;;;;;;;4.47;100.00;101368.28;5089790;28;20454;-70
2022/12/03 09:11:42;;;;;;;90.10;45.90;;;;;;;4.41;100.00;101355.28;5089137;28;20027;-70
2022/12/03 09:14:07;;;;;;;95.28;47.00;;;;;;;4.35;100.00;101344.06;5090192;28;20092;-73
2022/12/03 09:16:33;;;;;;;89.20;45.90;;;;;;;4.37;100.00;101342.22;5091078;28;20801;-74
2022/12/03 09:18:58;;;;;;;96.68;48.95;;;;;;;4.43;100.00;101342.81;5090667;28;20170;-70
2022/12/03 09:21:24;;;;;;;98.75;49.70;;;;;;;4.43;100.00;101352.56;5089000;28;20028;-70
2022/12/03 09:23:49;;;;;;;91.38;46.05;;;;;;;4.51;100.00;101364.56;5088825;28;20132;-71
2022/12/03 09:26:15;;;;;;;89.63;46.72;;;;;;;4.44;100.00;101344.53;5089292;28;20046;-69
2022/12/03 09:28:40;;;;;;;91.72;46.58;;;;;;;4.48;100.00;101347.88;5087716;28;20451;-71
2022/12/03 09:31:06;;;;;;;99.78;49.67;;;;;;;4.36;100.00;101314.78;5086893;28;20032;-70
2022/12/03 09:33:31;;;;;;;97.43;48.80;;;;;;;4.64;100.00;101346.22;5087008;28;20131;-70
2022/12/03 09:35:58;;;;;;;97.05;49.08;;;;;;;4.46;100.00;101315.25;5088952;28;20032;-71
2022/12/03 09:38:25;;;;;;;100.00;52.30;;;;;;;4.67;100.00;101346.09;5088779;28;20454;-74
2022/12/03 09:40:50;;;;;;;94.85;49.90;;;;;;;4.63;100.00;101326.78;5091094;28;20031;-73
2022/12/03 09:43:17;;;;;;;101.22;52.85;;;;;;;4.73;100.00;101330.72;5090839;28;20032;-74
2022/12/03 09:45:47;;;;;;;103.25;55.67;;;;;;;4.74;100.00;101327.13;5090478;28;20465;-74
2022/12/03 09:48:17;;;;;;;99.68;50.67;;;;;;;4.78;100.00;101313.69;5090755;28;20371;-75
2022/12/03 09:50:43;;;;;;;103.82;53.88;;;;;;;4.69;100.00;101289.31;5089309;28;20081;-74
2022/12/03 09:53:14;;;;;;;104.55;51.28;;;;;;;4.84;100.00;101313.41;5090894;28;20024;-73
2022/12/03 09:55:43;;;;;;;102.10;53.03;;;;;;;4.91;100.00;101298.88;5089112;28;20028;-74
2022/12/03 09:58:11;;;;;;;107.05;55.15;;;;;;;4.93;100.00;101308.50;5090594;28;20028;-73
2022/12/03 10:00:37;;;;;;;115.90;57.75;;;;;;;4.98;100.00;101309.16;5088698;28;20040;-74
2022/12/03 10:03:05;;;;;;;96.22;50.13;;;;;;;5.05;100.00;101315.88;5090646;28;20623;-74
2022/12/03 10:05:32;;;;;;;97.30;50.47;;;;;;;5.00;100.00;101312.56;5090362;28;20042;-74
2022/12/03 10:08:10;;;;;;;88.00;50.20;;;;;;;4.99;100.00;101310.00;5090478;28;20032;-74
2022/12/03 10:10:38;;;;;;;92.35;51.05;;;;;;;5.06;100.00;101325.56;5090091;28;20048;-74
2022/12/03 10:13:04;;;;;;;94.28;51.72;;;;;;;5.04;100.00;101323.91;5086615;28;20104;-73
2022/12/03 10:15:31;;;;;;;91.90;48.53;;;;;;;5.14;100.00;101317.22;5088513;28;20448;-74
2022/12/03 10:17:57;;;;;;;90.63;50.75;;;;;;;5.14;100.00;101310.09;5087446;28;20543;-74
2022/12/03 10:20:24;;;;;;;100.45;51.78;;;;;;;5.16;100.00;101302.06;5086083;28;20044;-70
2022/12/03 10:22:50;;;;;;;88.72;48.78;;;;;;;5.24;100.00;101315.81;5088264;28;20461;-69
2022/12/03 10:25:18;;;;;;;92.25;51.55;;;;;;;5.27;100.00;101297.91;5086718;28;20042;-70
2022/12/03 10:27:57;;;;;;;92.43;51.22;;;;;;;5.34;100.00;101315.28;5088193;28;20039;-70
2022/12/03 10:30:27;;;;;;;93.70;52.78;;;;;;;5.35;100.00;101309.00;5086520;28;20565;-70
2022/12/03 10:32:53;;;;;;;92.32;52.50;;;;;;;5.26;100.00;101287.34;5086436;28;20027;-71
2022/12/03 10:35:22;;;;;;;93.40;48.92;;;;;;;5.34;100.00;101291.34;5088150;28;20500;-71
2022/12/03 10:37:57;;;;;;;89.20;49.47;;;;;;;5.40;100.00;101303.47;5087773;28;20356;-70
2022/12/03 10:40:29;;;;;;;86.10;48.55;;;;;;;5.45;100.00;101298.78;5102565;28;20047;-69
2022/12/03 10:43:11;;;;;;;87.15;49.78;;;;;;;5.40;100.00;101274.19;5086373;28;20404;-70
2022/12/03 10:45:36;;;;;;;80.53;48.92;;;;;;;5.57;100.00;101283.03;5085113;28;20136;-71
2022/12/03 10:48:20;;;;;;;89.85;48.95;;;;;;;5.58;100.00;101273.28;5085899;28;20514;-70
2022/12/03 10:50:48;;;;;;;84.90;49.05;;;;;;;5.69;100.00;101274.44;5085926;27;20055;-71
2022/12/03 10:53:14;;;;;;;79.97;45.63;;;;;;;5.78;100.00;101276.59;5087055;28;20039;-70
2022/12/03 10:55:42;;;;;;;86.78;50.63;;;;;;;5.79;100.00;101246.38;5086211;28;20027;-70
2022/12/03 10:58:18;;;;;;;87.20;52.47;;;;;;;5.78;100.00;101235.81;5086545;28;20035;-71
2022/12/03 11:00:44;;;;;;;92.38;51.45;;;;;;;5.86;100.00;101245.13;5084954;28;20468;-70
2022/12/03 11:03:22;;;;;;;89.85;52.92;;;;;;;6.08;100.00;101267.00;5086661;28;20039;-70
2022/12/03 11:05:48;;;;;;;78.78;47.30;;;;;;;6.05;100.00;101253.84;5087266;28;20139;-71
2022/12/03 11:08:37;;;;;;;80.72;48.90;;;;;;;6.05;100.00;101248.53;5086024;28;20070;-69
2022/12/03 11:11:15;;;;;;;74.97;46.05;;;;;;;6.10;100.00;101242.94;5077935;28;20043;-70
2022/12/03 11:13:40;;;;;;;72.13;44.47;;;;;;;6.14;100.00;101258.69;5087126;28;20052;-70
2022/12/03 11:16:09;;;;;;;75.22;44.97;;;;;;;6.15;100.00;101255.06;5079879;28;20566;-70
2022/12/03 11:18:37;;;;;;;75.82;47.38;;;;;;;6.17;100.00;101247.88;5086053;27;20032;-70
2022/12/03 11:21:07;;;;;;;76.13;45.00;;;;;;;6.05;100.00;101224.56;5081870;28;20036;-72
2022/12/03 11:23:45;;;;;;;76.43;47.67;;;;;;;6.20;100.00;101247.69;5086739;28;20484;-70
2022/12/03 11:26:12;;;;;;;79.25;48.03;;;;;;;6.04;100.00;101206.00;5087095;28;20383;-70
2022/12/03 11:28:54;;;;;;;79.07;45.70;;;;;;;6.25;100.00;101236.75;5086216;28;20040;-70
2022/12/03 11:31:40;;;;;;;75.75;46.88;;;;;;;6.30;100.00;101229.38;5086968;28;20036;-70
2022/12/03 11:34:17;;;;;;;77.22;46.47;;;;;;;6.33;100.00;101223.88;5084683;28;20044;-70
2022/12/03 11:37:08;;;;;;;71.13;45.10;;;;;;;6.37;100.00;101234.28;5085125;28;20032;-70